createdAt,value
2019-04-26T00:01:18.323Z,60.60
2019-04-26T00:03:48.338Z,61.80
2019-04-26T00:06:18.661Z,62.40
2019-04-26T00:08:52.879Z,62.90
2019-04-26T00:11:33.249Z,63.70
2019-04-26T00:14:16.229Z,64.00
2019-04-26T00:16:53.214Z,64.40
2019-04-26T00:19:23.083Z,65.00
2019-04-26T00:21:52.615Z,65.30
2019-04-26T00:24:22.624Z,65.90
2019-04-26T00:26:52.058Z,65.90
2019-04-26T00:29:21.538Z,65.80
2019-04-26T00:31:51.223Z,66.00
2019-04-26T00:34:21.634Z,66.40
2019-04-26T00:36:51.208Z,66.90
2019-04-26T00:39:20.666Z,67.00
2019-04-26T00:41:50.423Z,67.50
2019-04-26T00:44:20.792Z,67.80
2019-04-26T00:46:53.970Z,68.00
2019-04-26T00:49:24.096Z,68.20
2019-04-26T00:51:53.806Z,68.40
2019-04-26T00:54:24.404Z,68.80
2019-04-26T00:56:54.760Z,68.60
2019-04-26T00:59:24.738Z,68.90
2019-04-26T01:01:58.888Z,69.00
2019-04-26T01:04:28.327Z,69.20
2019-04-26T01:06:59.174Z,69.70
2019-04-26T01:09:28.557Z,69.60
2019-04-26T01:11:57.928Z,69.90
2019-04-26T01:14:27.320Z,69.70
2019-04-26T01:16:56.766Z,70.30
2019-04-26T01:19:27.184Z,70.40
2019-04-26T01:22:00.811Z,70.40
2019-04-26T01:24:33.176Z,70.40
2019-04-26T01:27:04.490Z,70.80
2019-04-26T01:29:36.276Z,71.00
2019-04-26T01:32:12.198Z,71.10
2019-04-26T01:37:31.302Z,71.40
2019-04-26T01:40:06.068Z,71.20
2019-04-26T01:42:57.182Z,71.20
2019-04-26T01:45:52.260Z,71.40
2019-04-26T01:48:46.511Z,71.40
2019-04-26T01:51:24.443Z,71.80
2019-04-26T01:53:54.247Z,72.10
2019-04-26T01:56:29.285Z,72.20
2019-04-26T01:58:58.989Z,72.30
2019-04-26T02:01:43.567Z,72.60
2019-04-26T02:04:13.113Z,72.80
2019-04-26T02:06:42.502Z,73.20
2019-04-26T02:09:12.476Z,73.60
2019-04-26T02:11:42.159Z,73.80
2019-04-26T02:14:11.779Z,74.30
2019-04-26T02:16:41.714Z,74.50
2019-04-26T02:19:11.480Z,74.60
2019-04-26T02:21:46.448Z,74.50
2019-04-26T02:24:26.501Z,74.60
2019-04-26T02:26:56.806Z,75.00
2019-04-26T02:29:28.605Z,75.00
2019-04-26T02:32:07.072Z,75.00
2019-04-26T02:34:38.156Z,75.00
2019-04-26T02:37:10.968Z,75.10
2019-04-26T02:39:41.884Z,75.40
2019-04-26T02:42:23.662Z,75.50
2019-04-26T02:45:21.148Z,75.40
2019-04-26T02:47:58.531Z,76.30
2019-04-26T02:50:49.639Z,75.80
2019-04-26T02:53:56.328Z,75.70
2019-04-26T02:56:34.136Z,76.00
2019-04-26T02:59:26.034Z,76.10
2019-04-26T03:01:59.106Z,75.90
2019-04-26T03:04:31.038Z,76.10
2019-04-26T03:07:05.149Z,76.30
2019-04-26T03:09:38.738Z,76.50
2019-04-26T03:12:11.875Z,76.50
2019-04-26T03:15:14.105Z,76.70
2019-04-26T03:17:50.261Z,76.90
2019-04-26T03:20:23.634Z,76.90
2019-04-26T03:23:12.022Z,77.00
2019-04-26T03:26:07.448Z,77.10
2019-04-26T03:29:07.260Z,77.30
2019-04-26T03:32:16.324Z,77.70
2019-04-26T03:34:55.285Z,77.60
2019-04-26T03:37:48.349Z,77.50
2019-04-26T03:40:36.933Z,77.70
2019-04-26T03:43:36.988Z,77.70
2019-04-26T03:46:39.791Z,77.80
2019-04-26T03:49:26.036Z,77.90
2019-04-26T03:52:36.980Z,78.00
2019-04-26T03:55:29.367Z,78.10
2019-04-26T03:58:05.059Z,78.20
2019-04-26T04:00:50.780Z,78.20
2019-04-26T04:03:47.735Z,78.30
2019-04-26T04:06:24.395Z,78.50
2019-04-26T04:08:58.835Z,78.90
2019-04-26T04:11:40.062Z,78.90
2019-04-26T04:14:17.981Z,79.10
2019-04-26T04:17:18.462Z,79.50
2019-04-26T04:20:44.404Z,79.70
2019-04-26T04:23:53.760Z,79.70
2019-04-26T04:26:31.621Z,79.70
2019-04-26T04:29:42.941Z,79.60
2019-04-26T04:32:40.452Z,79.60
2019-04-26T04:35:12.741Z,79.50
2019-04-26T04:38:08.508Z,79.50
2019-04-26T04:41:11.713Z,79.70
2019-04-26T04:43:50.921Z,79.80
2019-04-26T04:46:58.560Z,79.70
2019-04-26T04:49:56.517Z,79.60
2019-04-26T04:52:41.364Z,79.60
2019-04-26T04:55:25.324Z,79.50
2019-04-26T04:58:17.564Z,79.60
2019-04-26T05:01:52.513Z,79.50
2019-04-26T05:04:47.551Z,79.20
2019-04-26T05:07:45.289Z,78.80
2019-04-26T05:10:19.902Z,78.80
2019-04-26T05:13:25.144Z,78.50
2019-04-26T05:16:33.856Z,78.40
2019-04-26T05:19:51.210Z,78.20
2019-04-26T05:22:46.328Z,77.80
2019-04-26T05:26:15.507Z,77.60
2019-04-26T05:29:35.115Z,77.30
2019-04-26T05:32:48.959Z,77.00
2019-04-26T05:35:51.034Z,76.90
2019-04-26T05:38:53.191Z,77.20
2019-04-26T05:41:42.032Z,76.10
2019-04-26T05:44:35.023Z,75.80
2019-04-26T05:47:32.163Z,75.80
2019-04-26T05:50:25.143Z,75.60
2019-04-26T05:53:52.822Z,75.10
2019-04-26T05:57:03.587Z,74.80
2019-04-26T05:59:50.621Z,74.30
2019-04-26T06:03:06.099Z,74.00
2019-04-26T06:06:22.607Z,73.80
2019-04-26T06:09:40.735Z,73.50
2019-04-26T06:12:26.203Z,73.20
2019-04-26T06:15:28.923Z,72.90
2019-04-26T06:18:29.862Z,72.50
2019-04-26T06:21:28.736Z,72.30
2019-04-26T06:24:48.420Z,72.20
2019-04-26T06:27:51.947Z,72.00
2019-04-26T06:30:31.148Z,71.80
2019-04-26T06:33:29.831Z,71.50
2019-04-26T06:36:04.401Z,71.50
2019-04-26T06:39:21.931Z,71.30
2019-04-26T06:42:27.901Z,70.90
2019-04-26T06:45:47.716Z,70.60
2019-04-26T06:48:42.168Z,70.30
2019-04-26T06:51:24.789Z,69.90
2019-04-26T06:54:22.106Z,69.40
2019-04-26T06:57:35.164Z,69.10
2019-04-26T07:00:13.746Z,68.90
2019-04-26T07:03:03.612Z,68.80
2019-04-26T07:05:36.296Z,68.50
2019-04-26T07:08:39.343Z,68.40
2019-04-26T07:11:44.846Z,67.90
2019-04-26T07:14:56.723Z,67.30
2019-04-26T07:17:45.048Z,66.90
2019-04-26T07:20:39.097Z,66.40
2019-04-26T07:23:39.530Z,65.90
2019-04-26T07:26:54.484Z,65.10
2019-04-26T07:30:23.378Z,64.70
2019-04-26T07:33:26.859Z,65.40
2019-04-26T07:36:15.178Z,64.80
2019-04-26T07:39:31.247Z,64.50
2019-04-26T07:42:57.051Z,64.40
2019-04-26T07:46:14.939Z,64.10
2019-04-26T07:49:15.474Z,63.40
2019-04-26T07:52:22.014Z,63.70
2019-04-26T07:55:34.183Z,63.70
2019-04-26T07:58:34.807Z,63.60
2019-04-26T08:01:33.177Z,63.70
2019-04-26T08:04:09.381Z,63.60
2019-04-26T08:06:52.103Z,63.60
2019-04-26T08:09:27.497Z,63.90
2019-04-26T08:12:06.174Z,64.20
2019-04-26T08:14:51.381Z,64.80
2019-04-26T08:17:57.040Z,65.60
2019-04-26T08:20:38.387Z,66.20
2019-04-26T08:23:27.257Z,66.70
2019-04-26T08:25:43.286Z,66.70
2019-04-26T08:28:15.029Z,66.70
2019-04-26T08:30:46.910Z,66.90
2019-04-26T08:33:21.563Z,67.10
2019-04-26T08:35:53.602Z,67.10
2019-04-26T08:38:24.245Z,67.20
2019-04-26T08:40:54.271Z,67.30
2019-04-26T08:43:41.999Z,67.40
2019-04-26T08:46:32.258Z,68.00
2019-04-26T08:49:11.139Z,68.50
2019-04-26T08:51:42.639Z,68.70
2019-04-26T08:54:21.555Z,68.50
2019-04-26T08:56:57.764Z,68.60
2019-04-26T08:59:30.102Z,68.80
2019-04-26T09:02:20.969Z,69.10
2019-04-26T09:05:11.265Z,69.30
2019-04-26T09:07:44.370Z,69.50
2019-04-26T09:10:16.268Z,69.60
2019-04-26T09:12:48.285Z,69.60
2019-04-26T09:15:23.459Z,69.80
2019-04-26T09:17:52.900Z,70.00
2019-04-26T09:20:29.412Z,70.20
2019-04-26T09:23:10.996Z,70.10
2019-04-26T09:25:45.095Z,70.20
2019-04-26T09:28:29.962Z,70.30
2019-04-26T09:31:11.196Z,70.30
2019-04-26T09:33:53.883Z,70.40
2019-04-26T09:36:23.559Z,70.40
2019-04-26T09:38:53.780Z,70.60
2019-04-26T09:41:26.510Z,71.00
2019-04-26T09:44:00.275Z,71.20
2019-04-26T09:46:57.811Z,71.10
2019-04-26T09:49:44.875Z,71.10
2019-04-26T09:52:18.683Z,71.10
2019-04-26T09:54:48.231Z,71.10
2019-04-26T09:57:17.861Z,71.20
2019-04-26T09:59:47.239Z,71.40
2019-04-26T10:02:16.688Z,71.50
2019-04-26T10:04:46.635Z,71.90
2019-04-26T10:07:16.091Z,72.40
2019-04-26T10:09:45.859Z,73.10
2019-04-26T10:12:24.007Z,73.50
2019-04-26T10:15:10.892Z,74.10
2019-04-26T10:17:40.254Z,74.40
2019-04-26T10:20:09.843Z,74.90
2019-04-26T10:22:39.231Z,75.20
2019-04-26T10:25:16.345Z,75.80
2019-04-26T10:27:40.667Z,77.10
2019-04-26T10:30:12.367Z,76.60
2019-04-26T10:32:41.991Z,77.70
2019-04-26T10:35:11.431Z,77.90
2019-04-26T10:37:43.944Z,78.00
2019-04-26T10:40:12.120Z,77.90
2019-04-26T10:42:41.523Z,78.20
2019-04-26T10:45:14.664Z,78.60
2019-04-26T10:47:43.053Z,78.30
2019-04-26T10:50:12.831Z,79.00
2019-04-26T10:52:56.791Z,79.30
2019-04-26T10:55:46.474Z,79.00
2019-04-26T10:58:25.242Z,79.30
2019-04-26T11:00:56.371Z,79.00
2019-04-26T11:03:25.763Z,78.60
2019-04-26T11:05:55.430Z,78.90
2019-04-26T11:08:24.766Z,78.80
2019-04-26T11:10:54.598Z,78.30
2019-04-26T11:13:24.045Z,78.00
2019-04-26T11:15:53.842Z,77.80
2019-04-26T11:18:27.274Z,77.30
2019-04-26T11:20:54.260Z,76.60
2019-04-26T11:23:23.826Z,76.60
2019-04-26T11:25:53.278Z,76.50
2019-04-26T11:28:22.954Z,76.40
2019-04-26T11:30:56.966Z,76.40
2019-04-26T11:33:23.498Z,76.40
2019-04-26T11:35:52.974Z,76.70
2019-04-26T11:38:22.499Z,76.70
2019-04-26T11:41:05.106Z,76.30
2019-04-26T11:43:22.976Z,76.00
2019-04-26T11:46:03.779Z,76.00
2019-04-26T11:48:25.414Z,76.20
2019-04-26T11:50:54.755Z,76.00
2019-04-26T11:53:24.129Z,76.00
2019-04-26T11:55:53.536Z,75.60
2019-04-26T11:58:23.788Z,75.40
2019-04-26T12:01:00.119Z,75.70
2019-04-26T12:03:29.851Z,75.80
2019-04-26T12:06:09.636Z,75.40
2019-04-26T12:09:01.579Z,75.40
2019-04-26T12:11:34.991Z,75.00
2019-04-26T12:14:04.107Z,75.10
2019-04-26T12:16:46.766Z,75.10
2019-04-26T12:19:04.958Z,75.40
2019-04-26T12:21:35.092Z,75.80
2019-04-26T12:24:04.979Z,75.50
2019-04-26T12:26:42.900Z,75.80
2019-04-26T12:29:05.408Z,76.10
2019-04-26T12:31:34.840Z,76.90
2019-04-26T12:34:04.343Z,77.60
2019-04-26T12:36:33.979Z,78.30
2019-04-26T12:39:03.922Z,78.70
2019-04-26T12:41:40.455Z,79.40
2019-04-26T12:44:04.519Z,79.90
2019-04-26T12:46:41.603Z,80.60
2019-04-26T12:49:11.029Z,80.80
2019-04-26T12:51:42.912Z,81.10
2019-04-26T12:54:11.427Z,81.90
2019-04-26T12:56:40.860Z,82.00
2019-04-26T12:59:10.245Z,82.00
2019-04-26T13:01:42.622Z,82.50
2019-04-26T13:04:11.095Z,83.30
2019-04-26T13:06:47.127Z,83.10
2019-04-26T13:09:21.853Z,83.40
2019-04-26T13:12:03.899Z,83.10
2019-04-26T13:14:51.253Z,82.90
2019-04-26T13:17:23.811Z,82.80
2019-04-26T13:19:53.954Z,82.60
2019-04-26T13:22:24.361Z,83.20
2019-04-26T13:24:54.006Z,83.00
2019-04-26T13:27:23.449Z,82.80
2019-04-26T13:30:01.467Z,82.70
2019-04-26T13:32:24.732Z,81.30
2019-04-26T13:34:56.268Z,81.00
2019-04-26T13:37:25.682Z,80.90
2019-04-26T13:39:56.466Z,80.80
2019-04-26T13:42:26.069Z,80.80
2019-04-26T13:45:17.461Z,80.90
2019-04-26T13:48:15.038Z,81.20
2019-04-26T13:50:51.603Z,80.90
2019-04-26T13:53:22.268Z,80.80
2019-04-26T13:55:51.704Z,80.80
2019-04-26T13:58:25.361Z,80.40
2019-04-26T14:00:52.194Z,80.10
2019-04-26T14:03:21.671Z,80.60
2019-04-26T14:05:51.068Z,80.10
2019-04-26T14:08:20.447Z,80.40
2019-04-26T14:10:51.350Z,79.60
2019-04-26T14:13:24.577Z,79.50
2019-04-26T14:15:52.619Z,79.20
2019-04-26T14:18:22.005Z,78.50
2019-04-26T14:20:54.654Z,78.60
2019-04-26T14:23:41.399Z,78.00
2019-04-26T14:26:13.542Z,78.30
2019-04-26T14:28:43.006Z,79.20
2019-04-26T14:31:16.359Z,79.70
2019-04-26T14:33:43.829Z,80.00
2019-04-26T14:36:17.896Z,79.50
2019-04-26T14:38:44.463Z,79.90
2019-04-26T14:41:17.877Z,80.10
2019-04-26T14:43:44.957Z,80.60
2019-04-26T14:46:16.125Z,81.00
2019-04-26T14:49:00.250Z,81.00
2019-04-26T14:51:17.021Z,81.20
2019-04-26T14:53:47.450Z,81.30
2019-04-26T14:56:16.877Z,81.60
2019-04-26T14:58:46.359Z,81.20
2019-04-26T15:01:28.493Z,81.80
2019-04-26T15:04:32.918Z,81.60
2019-04-26T15:07:05.446Z,81.10
2019-04-26T15:09:36.326Z,81.00
2019-04-26T15:12:07.604Z,80.30
2019-04-26T15:14:36.860Z,80.20
2019-04-26T15:17:06.511Z,80.10
2019-04-26T15:19:36.402Z,80.20
2019-04-26T15:22:10.250Z,80.20
2019-04-26T15:24:38.637Z,80.60
2019-04-26T15:27:08.440Z,80.40
2019-04-26T15:29:38.051Z,79.80
2019-04-26T15:32:07.741Z,79.00
2019-04-26T15:34:37.653Z,78.00
2019-04-26T15:37:07.338Z,77.90
2019-04-26T15:39:58.765Z,77.80
2019-04-26T15:43:00.829Z,77.90
2019-04-26T15:45:49.523Z,77.80
2019-04-26T15:48:43.846Z,77.70
2019-04-26T15:51:14.078Z,77.80
2019-04-26T15:53:48.824Z,77.80
2019-04-26T15:56:17.719Z,78.20
2019-04-26T15:58:48.984Z,78.80
2019-04-26T16:01:17.968Z,78.70
2019-04-26T16:03:48.194Z,78.70
2019-04-26T16:06:17.604Z,78.40
2019-04-26T16:08:47.325Z,78.00
2019-04-26T16:11:16.904Z,77.50
2019-04-26T16:13:54.197Z,77.30
2019-04-26T16:16:20.539Z,77.30
2019-04-26T16:18:53.475Z,77.20
2019-04-26T16:21:20.265Z,77.20
2019-04-26T16:23:52.042Z,77.10
2019-04-26T16:26:22.798Z,76.70
2019-04-26T16:29:18.417Z,77.20
2019-04-26T16:32:16.769Z,76.60
2019-04-26T16:34:48.846Z,75.60
2019-04-26T16:37:21.653Z,74.40
2019-04-26T16:39:50.599Z,73.70
2019-04-26T16:42:20.015Z,72.20
2019-04-26T16:44:49.715Z,71.30
2019-04-26T16:47:19.675Z,70.40
2019-04-26T16:49:49.248Z,70.20
2019-04-26T16:52:19.237Z,70.70
2019-04-26T16:54:48.892Z,70.90
2019-04-26T16:57:18.270Z,71.80
2019-04-26T16:59:54.392Z,72.40
2019-04-26T17:02:25.534Z,73.00
2019-04-26T17:04:50.306Z,73.40
2019-04-26T17:07:25.387Z,74.30
2019-04-26T17:09:57.673Z,75.00
2019-04-26T17:12:22.620Z,75.50
2019-04-26T17:14:53.648Z,75.70
2019-04-26T17:17:23.279Z,75.90
2019-04-26T17:19:52.795Z,75.90
2019-04-26T17:22:41.960Z,76.00
2019-04-26T17:25:06.728Z,76.30
2019-04-26T17:27:36.296Z,76.60
2019-04-26T17:30:08.669Z,76.90
2019-04-26T17:32:38.131Z,77.20
2019-04-26T17:35:07.854Z,77.40
2019-04-26T17:37:37.402Z,77.50
2019-04-26T17:40:07.106Z,77.60
2019-04-26T17:42:36.742Z,77.80
2019-04-26T17:45:07.266Z,77.90
2019-04-26T17:47:40.046Z,78.20
2019-04-26T17:50:08.549Z,78.30
2019-04-26T17:52:37.974Z,78.60
2019-04-26T17:55:07.878Z,78.90
2019-04-26T17:57:43.585Z,79.00
2019-04-26T18:00:13.777Z,79.50
2019-04-26T18:02:47.781Z,79.80
2019-04-26T18:05:13.082Z,80.10
2019-04-26T18:07:50.243Z,80.50
2019-04-26T18:10:13.781Z,80.50
2019-04-26T18:12:45.755Z,80.60
2019-04-26T18:15:18.857Z,80.50
2019-04-26T18:18:17.669Z,80.60
2019-04-26T18:21:24.161Z,80.60
2019-04-26T18:23:57.008Z,80.90
2019-04-26T18:26:25.160Z,81.00
2019-04-26T18:28:55.877Z,81.20
2019-04-26T18:31:28.554Z,81.30
2019-04-26T18:34:00.650Z,81.30
2019-04-26T18:36:31.328Z,82.10
2019-04-26T18:38:58.698Z,81.40
2019-04-26T18:41:28.980Z,81.40
2019-04-26T18:44:00.145Z,81.30
2019-04-26T18:46:40.437Z,81.40
2019-04-26T18:49:11.367Z,81.60
2019-04-26T18:51:43.290Z,81.60
2019-04-26T18:54:17.980Z,81.80
2019-04-26T18:56:51.469Z,81.70
2019-04-26T18:59:23.028Z,81.80
2019-04-26T19:01:53.469Z,81.70
2019-04-26T19:04:23.633Z,81.70
2019-04-26T19:06:56.952Z,81.80
2019-04-26T19:09:27.494Z,82.10
2019-04-26T19:11:57.005Z,82.40
2019-04-26T19:14:49.728Z,82.50
2019-04-26T19:17:26.104Z,82.50
2019-04-26T19:20:14.531Z,82.60
2019-04-26T19:22:53.262Z,82.70
2019-04-26T19:25:23.888Z,82.70
2019-04-26T19:27:54.065Z,82.60
2019-04-26T19:30:24.198Z,82.50
2019-04-26T19:32:55.661Z,82.50
2019-04-26T19:35:25.455Z,82.50
2019-04-26T19:37:55.108Z,82.60
2019-04-26T19:40:27.310Z,82.60
2019-04-26T19:42:57.565Z,82.60
2019-04-26T19:45:49.554Z,82.70
2019-04-26T19:48:41.789Z,82.80
2019-04-26T19:51:36.488Z,83.00
2019-04-26T19:54:38.436Z,83.10
2019-04-26T19:57:13.496Z,83.10
2019-04-26T19:59:43.025Z,83.20
2019-04-26T20:02:15.097Z,83.30
2019-04-26T20:04:44.762Z,83.20
2019-04-26T20:07:14.512Z,83.30
2019-04-26T20:09:44.325Z,83.40
2019-04-26T20:12:13.935Z,83.50
2019-04-26T20:14:50.370Z,83.70
2019-04-26T20:17:19.938Z,83.90
2019-04-26T20:19:47.781Z,84.00
2019-04-26T20:22:22.061Z,84.10
2019-04-26T20:24:53.069Z,84.10
2019-04-26T20:27:23.992Z,84.10
2019-04-26T20:29:51.678Z,84.10
2019-04-26T20:32:32.024Z,83.90
2019-04-26T20:35:05.663Z,83.90
2019-04-26T20:37:35.293Z,83.80
2019-04-26T20:40:18.542Z,83.70
2019-04-26T20:42:36.756Z,83.40
2019-04-26T20:45:08.537Z,83.40
2019-04-26T20:47:37.802Z,83.30
2019-04-26T20:50:07.821Z,83.10
2019-04-26T20:52:37.422Z,82.90
2019-04-26T20:55:07.212Z,82.80
2019-04-26T20:57:36.862Z,82.50
2019-04-26T21:00:07.097Z,82.20
2019-04-26T21:02:36.867Z,82.20
2019-04-26T21:05:11.246Z,82.50
2019-04-26T21:07:38.491Z,81.30
2019-04-26T21:10:08.491Z,81.20
2019-04-26T21:12:38.044Z,81.00
2019-04-26T21:15:07.828Z,80.80
2019-04-26T21:17:41.521Z,80.60
2019-04-26T21:20:14.165Z,80.30
2019-04-26T21:22:43.519Z,80.20
2019-04-26T21:25:32.538Z,80.00
2019-04-26T21:28:08.081Z,79.90
2019-04-26T21:30:51.574Z,79.70
2019-04-26T21:33:24.286Z,79.50
2019-04-26T21:36:09.978Z,79.50
2019-04-26T21:38:43.914Z,79.50
2019-04-26T21:41:16.905Z,79.40
2019-04-26T21:43:46.389Z,79.50
2019-04-26T21:46:20.060Z,79.50
2019-04-26T21:48:46.816Z,79.50
2019-04-26T21:51:16.350Z,79.60
2019-04-26T21:53:45.716Z,79.70
2019-04-26T21:56:15.094Z,79.70
2019-04-26T21:58:46.089Z,79.70
2019-04-26T22:01:19.613Z,79.70
2019-04-26T22:03:54.053Z,79.80
2019-04-26T22:06:24.528Z,79.80
2019-04-26T22:09:13.666Z,79.70
2019-04-26T22:11:44.432Z,79.70
2019-04-26T22:14:23.502Z,79.60
2019-04-26T22:17:02.053Z,79.60
2019-04-26T22:19:48.466Z,79.70
2019-04-26T22:22:47.396Z,79.70
2019-04-26T22:25:17.950Z,79.70
2019-04-26T22:27:47.330Z,79.70
2019-04-26T22:30:22.748Z,79.70
2019-04-26T22:32:58.012Z,79.60
2019-04-26T22:35:23.547Z,79.60
2019-04-26T22:37:53.749Z,79.50
2019-04-26T22:40:23.414Z,79.50
2019-04-26T22:42:58.008Z,79.60
2019-04-26T22:45:34.700Z,79.50
2019-04-26T22:48:11.650Z,79.60
2019-04-26T22:50:40.867Z,79.50
2019-04-26T22:53:11.920Z,79.50
2019-04-26T22:55:43.449Z,79.40
2019-04-26T22:58:13.452Z,79.30
2019-04-26T23:00:43.597Z,79.20
2019-04-26T23:03:13.727Z,79.20
2019-04-26T23:05:43.365Z,79.20
2019-04-26T23:08:13.580Z,79.30
2019-04-26T23:10:48.527Z,79.50
2019-04-26T23:13:37.805Z,79.50
2019-04-26T23:16:14.348Z,79.50
2019-04-26T23:19:01.347Z,79.40
2019-04-26T23:21:36.771Z,79.40
2019-04-26T23:24:06.138Z,79.50
2019-04-26T23:26:37.436Z,79.50
2019-04-26T23:29:08.728Z,79.50
2019-04-26T23:31:41.174Z,79.60
2019-04-26T23:34:08.600Z,79.60
2019-04-26T23:36:38.000Z,79.90
2019-04-26T23:39:12.169Z,80.00
2019-04-26T23:41:41.706Z,80.30
2019-04-26T23:44:10.043Z,80.20
2019-04-26T23:46:39.443Z,80.50
2019-04-26T23:49:08.875Z,80.60
2019-04-26T23:51:42.498Z,80.90
2019-04-26T23:54:09.267Z,81.00
2019-04-26T23:56:38.655Z,81.10
2019-04-26T23:59:08.073Z,81.20
